createdAt,value
2023-02-28T00:00:23.424Z,5.34
2023-02-28T00:05:26.446Z,5.27
2023-02-28T00:10:26.081Z,5.34
2023-02-28T00:15:27.125Z,5.19
2023-02-28T00:20:28.174Z,5.17
2023-02-28T00:25:32.016Z,5.61
2023-02-28T00:30:33.520Z,5.39
2023-02-28T00:35:32.639Z,5.16
2023-02-28T00:40:35.643Z,5.09
2023-02-28T00:45:44.817Z,5.38
2023-02-28T00:50:43.697Z,5.11
2023-02-28T00:55:46.332Z,4.89
2023-02-28T01:00:59.680Z,5.09
2023-02-28T01:05:57.827Z,5.22
2023-02-28T01:10:58.223Z,5.39
2023-02-28T01:16:00.697Z,4.96
2023-02-28T01:21:09.856Z,4.62
2023-02-28T01:26:12.385Z,4.78
2023-02-28T01:31:12.740Z,5.19
2023-02-28T01:36:15.760Z,5.27
2023-02-28T01:41:22.144Z,4.94
2023-02-28T01:46:23.511Z,4.72
2023-02-28T01:51:35.882Z,4.68
2023-02-28T01:56:36.865Z,4.68
2023-02-28T02:01:37.288Z,4.63
2023-02-28T02:06:47.710Z,4.58
2023-02-28T02:11:49.544Z,4.71
2023-02-28T02:16:52.285Z,5.02
2023-02-28T02:22:25.322Z,5.06
2023-02-28T02:27:26.401Z,4.61
2023-02-28T02:32:34.833Z,4.34
2023-02-28T02:37:46.608Z,4.27
2023-02-28T02:42:58.286Z,4.35
2023-02-28T02:47:57.671Z,4.39
2023-02-28T02:52:59.623Z,4.45
2023-02-28T02:58:03.702Z,4.47
2023-02-28T03:03:03.187Z,4.60
2023-02-28T03:08:03.324Z,4.78
2023-02-28T03:13:19.093Z,4.60
2023-02-28T03:18:25.869Z,4.80
2023-02-28T03:23:28.470Z,5.06
2023-02-28T03:28:46.021Z,4.93
2023-02-28T03:33:46.045Z,4.71
2023-02-28T03:38:51.350Z,4.71
2023-02-28T03:43:56.737Z,4.73
2023-02-28T03:48:59.700Z,4.80
2023-02-28T03:54:01.787Z,4.71
2023-02-28T03:59:12.199Z,4.88
2023-02-28T04:04:24.006Z,5.09
2023-02-28T04:09:34.241Z,4.91
2023-02-28T04:14:36.188Z,4.71
2023-02-28T04:19:47.777Z,5.05
2023-02-28T04:24:52.128Z,4.76
2023-02-28T04:29:54.878Z,4.95
2023-02-28T04:34:56.647Z,4.77
2023-02-28T04:39:58.072Z,5.28
2023-02-28T04:44:59.292Z,4.67
2023-02-28T04:49:56.999Z,4.37
2023-02-28T04:54:58.445Z,4.33
2023-02-28T04:59:58.864Z,4.35
2023-02-28T05:04:56.752Z,4.36
2023-02-28T05:09:55.975Z,4.17
2023-02-28T05:14:55.072Z,4.70
2023-02-28T05:19:52.872Z,4.53
2023-02-28T05:24:55.352Z,4.44
2023-02-28T05:29:56.619Z,4.39
2023-02-28T05:34:57.219Z,4.77
2023-02-28T05:39:58.395Z,5.11
2023-02-28T05:45:01.076Z,5.29
2023-02-28T05:50:02.118Z,4.78
2023-02-28T05:55:02.471Z,5.26
2023-02-28T06:00:03.827Z,4.40
2023-02-28T06:05:16.220Z,4.47
2023-02-28T06:10:19.220Z,4.46
2023-02-28T06:15:22.383Z,4.50
2023-02-28T06:20:30.550Z,4.39
2023-02-28T06:25:35.078Z,4.34
2023-02-28T06:30:47.818Z,4.36
2023-02-28T06:35:49.838Z,4.22
2023-02-28T06:40:54.505Z,4.19
2023-02-28T06:45:58.952Z,4.45
2023-02-28T06:51:12.196Z,4.37
2023-02-28T06:56:14.191Z,4.57
2023-02-28T07:01:14.637Z,5.09
2023-02-28T07:06:19.114Z,4.89
2023-02-28T07:11:17.373Z,4.65
2023-02-28T07:16:16.043Z,4.63
2023-02-28T07:21:16.156Z,4.56
2023-02-28T07:26:19.432Z,4.46
2023-02-28T07:31:21.841Z,4.63
2023-02-28T07:36:25.642Z,5.05
2023-02-28T07:41:29.382Z,4.84
2023-02-28T07:46:37.744Z,4.63
2023-02-28T07:51:38.951Z,5.03
2023-02-28T07:56:39.041Z,5.13
2023-02-28T08:01:39.967Z,4.92
2023-02-28T08:06:49.022Z,5.20
2023-02-28T08:11:50.538Z,5.12
2023-02-28T08:16:57.578Z,5.10
2023-02-28T08:22:10.695Z,5.08
2023-02-28T08:27:15.680Z,5.16
2023-02-28T08:32:28.619Z,5.47
2023-02-28T08:37:32.899Z,5.44
2023-02-28T08:42:34.208Z,5.23
2023-02-28T08:47:32.680Z,5.56
2023-02-28T08:52:32.011Z,5.50
2023-02-28T08:57:29.878Z,5.22
2023-02-28T09:02:28.741Z,5.38
2023-02-28T09:07:30.915Z,5.22
2023-02-28T09:12:36.143Z,5.46
2023-02-28T09:17:34.776Z,5.33
2023-02-28T09:22:36.144Z,5.70
2023-02-28T09:27:36.320Z,5.36
2023-02-28T09:32:37.939Z,5.65
2023-02-28T09:37:37.042Z,5.67
2023-02-28T09:47:53.610Z,5.54
2023-02-28T09:52:54.269Z,5.50
2023-02-28T09:57:56.919Z,5.39
2023-02-28T10:03:17.456Z,5.58
2023-02-28T10:08:20.197Z,5.90
2023-02-28T10:13:42.262Z,5.81
2023-02-28T10:18:52.314Z,5.91
2023-02-28T10:23:55.798Z,5.87
2023-02-28T10:45:21.516Z,5.90
2023-02-28T10:50:39.397Z,5.85
2023-02-28T10:55:40.690Z,5.71
2023-02-28T11:00:40.068Z,6.46
2023-02-28T11:05:42.491Z,5.99
2023-02-28T11:11:04.031Z,6.11
2023-02-28T11:16:20.585Z,5.73
2023-02-28T11:21:36.132Z,6.07
2023-02-28T11:26:59.098Z,5.93
2023-02-28T11:32:35.457Z,5.72
2023-02-28T11:37:38.465Z,5.80
2023-02-28T11:42:53.032Z,5.78
2023-02-28T11:48:00.394Z,5.74
2023-02-28T11:53:09.575Z,5.72
2023-02-28T11:58:30.646Z,6.05
2023-02-28T12:03:48.114Z,6.06
2023-02-28T12:09:13.660Z,6.09
2023-02-28T12:14:36.848Z,5.86
2023-02-28T12:19:41.180Z,5.77
2023-02-28T12:25:01.456Z,6.20
2023-02-28T12:30:20.227Z,5.87
2023-02-28T12:35:27.175Z,5.64
2023-02-28T12:40:28.884Z,5.77
2023-02-28T12:45:28.025Z,5.86
2023-02-28T12:50:31.362Z,5.57
2023-02-28T12:55:37.495Z,5.96
2023-02-28T13:00:37.928Z,6.16
2023-02-28T13:05:40.068Z,6.46
2023-02-28T13:11:21.039Z,6.39
2023-02-28T13:16:24.116Z,6.20
2023-02-28T13:21:29.219Z,6.36
2023-02-28T13:26:41.931Z,6.15
2023-02-28T13:32:09.861Z,6.20
2023-02-28T13:37:28.971Z,6.30
2023-02-28T13:42:37.175Z,6.41
2023-02-28T13:48:06.080Z,6.76
2023-02-28T13:53:17.349Z,6.83
2023-02-28T13:58:25.563Z,6.18
2023-02-28T14:03:36.130Z,6.36
2023-02-28T14:08:36.117Z,6.11
2023-02-28T14:13:41.324Z,6.22
2023-02-28T14:18:45.235Z,6.84
2023-02-28T14:23:53.494Z,6.42
2023-02-28T14:28:56.226Z,6.56
2023-02-28T14:34:12.505Z,6.50
2023-02-28T14:39:22.426Z,6.55
2023-02-28T14:44:46.701Z,6.51
2023-02-28T14:49:50.992Z,6.73
2023-02-28T14:54:54.889Z,6.71
2023-02-28T15:00:06.365Z,6.54
2023-02-28T15:05:19.386Z,6.47
2023-02-28T15:10:17.607Z,6.41
2023-02-28T15:15:28.245Z,6.76
2023-02-28T15:20:38.735Z,6.92
2023-02-28T15:25:42.240Z,6.61
2023-02-28T15:30:40.883Z,6.44
2023-02-28T15:35:46.280Z,6.40
2023-02-28T15:41:05.897Z,6.51
2023-02-28T15:46:17.740Z,6.62
2023-02-28T15:51:35.447Z,7.02
2023-02-28T15:56:41.181Z,6.54
2023-02-28T16:01:40.632Z,6.28
2023-02-28T16:06:41.690Z,6.24
2023-02-28T16:11:43.532Z,6.26
2023-02-28T16:16:53.918Z,6.00
2023-02-28T16:22:02.775Z,6.03
2023-02-28T16:27:03.361Z,6.32
2023-02-28T16:32:02.807Z,6.07
2023-02-28T16:37:03.270Z,6.05
2023-02-28T16:42:08.413Z,5.84
2023-02-28T16:47:13.227Z,6.09
2023-02-28T16:52:26.897Z,5.85
2023-02-28T16:57:26.348Z,6.23
2023-02-28T17:02:26.583Z,6.03
2023-02-28T17:07:39.403Z,5.83
2023-02-28T17:12:48.004Z,5.89
2023-02-28T17:17:47.062Z,5.72
2023-02-28T17:22:48.927Z,5.69
2023-02-28T17:33:06.682Z,5.63
2023-02-28T17:38:07.887Z,5.51
2023-02-28T17:43:11.246Z,5.45
2023-02-28T17:48:13.880Z,5.47
2023-02-28T17:53:16.220Z,5.55
2023-02-28T17:58:17.262Z,5.58
2023-02-28T18:03:20.744Z,5.78
2023-02-28T18:08:20.802Z,5.74
2023-02-28T18:13:21.876Z,5.50
2023-02-28T18:18:25.560Z,5.61
2023-02-28T18:23:26.422Z,5.36
2023-02-28T18:28:26.318Z,5.30
2023-02-28T18:33:24.109Z,5.43
2023-02-28T18:38:25.744Z,5.37
2023-02-28T18:43:26.328Z,5.41
2023-02-28T18:48:42.410Z,5.83
2023-02-28T18:54:16.153Z,5.42
2023-02-28T18:59:17.171Z,5.49
2023-02-28T19:04:30.627Z,5.34
2023-02-28T19:09:31.539Z,5.63
2023-02-28T19:14:34.220Z,5.54
2023-02-28T19:19:40.189Z,5.46
2023-02-28T19:24:40.458Z,5.55
2023-02-28T19:29:42.881Z,5.50
2023-02-28T19:34:48.293Z,5.20
2023-02-28T19:39:57.401Z,5.33
2023-02-28T19:44:59.064Z,5.50
2023-02-28T19:49:57.732Z,5.23
2023-02-28T19:54:55.549Z,5.13
2023-02-28T19:59:54.877Z,5.12
2023-02-28T20:04:55.210Z,5.13
2023-02-28T20:09:56.962Z,5.16
2023-02-28T20:14:57.087Z,5.43
2023-02-28T20:19:59.064Z,5.22
2023-02-28T20:24:58.208Z,5.18
2023-02-28T20:30:02.085Z,5.23
2023-02-28T20:35:00.031Z,5.46
2023-02-28T20:40:00.011Z,5.39
2023-02-28T20:45:01.312Z,5.66
2023-02-28T20:50:02.973Z,5.59
2023-02-28T20:55:06.500Z,5.66
2023-02-28T21:00:13.743Z,5.87
2023-02-28T21:05:18.074Z,5.84
2023-02-28T21:10:20.355Z,5.95
2023-02-28T21:15:20.683Z,6.08
2023-02-28T21:20:22.771Z,5.98
2023-02-28T21:25:21.648Z,6.15
2023-02-28T21:30:21.774Z,5.99
2023-02-28T21:35:19.412Z,5.81
2023-02-28T21:40:18.156Z,5.77
2023-02-28T21:45:21.981Z,6.27
2023-02-28T21:50:22.722Z,6.01
2023-02-28T21:55:21.724Z,6.16
2023-02-28T22:00:20.976Z,5.86
2023-02-28T22:05:26.870Z,6.40
2023-02-28T22:10:27.598Z,6.30
2023-02-28T22:15:29.289Z,6.49
2023-02-28T22:20:32.889Z,6.24
2023-02-28T22:25:37.438Z,6.40
2023-02-28T22:30:41.658Z,6.21
2023-02-28T22:35:44.464Z,6.53
2023-02-28T22:40:47.647Z,6.59
2023-02-28T22:45:50.044Z,6.56
2023-02-28T22:50:53.234Z,6.43
2023-02-28T22:56:00.554Z,6.87
2023-02-28T23:01:13.210Z,6.55
2023-02-28T23:06:16.433Z,6.47
2023-02-28T23:11:24.021Z,6.34
2023-02-28T23:16:25.421Z,5.87
2023-02-28T23:21:23.588Z,5.96
2023-02-28T23:26:21.585Z,6.41
2023-02-28T23:31:25.163Z,6.06
2023-02-28T23:36:26.235Z,6.34
2023-02-28T23:41:28.320Z,6.05
2023-02-28T23:46:30.951Z,6.54
2023-02-28T23:51:33.438Z,6.17
2023-02-28T23:56:34.325Z,5.97
